• Join FlightAware (Why Join?)
  • Login
  • US Flag 
03:32PM EDT


 

Airport Tracker/Info


-or-


 

Live Flight TrackerFlight Track Log ✈ UAL335 ✈ 01-May-2013 ✈ KORD - KIAH

Flight Track Log - Related Links

Times and Time Zones

All times are in EDT time to prevent confusion due to time zone crossing. See the UAL335 flight status page for this flight to view local times or setup timezone preferences in your user account.

Time Position Orientation Groundspeed Altitude Reporting Facility
EDT Latitude Longitude Course Direction KTS MPH feet Rate Location/Type
12:31PM 41.9167 -87.9167 201° Southwest 155 178 3,000  Level Chicago TRACON
12:32PM 41.8667 -87.9333 194° South 212 244 4,300 2,100 Climbing Chicago TRACON
12:33PM 41.6958 -88.1179 196° South  Level Estimated
12:33PM 41.8033 -87.9403 185° South 239 275 7,100  Level Chicago Center
12:34PM 41.6005 -88.1879 203° Southwest  Level Estimated
12:34PM 41.7333 -87.9386 179° South 254 292 10,900  Level Chicago Center
12:35PM 41.4936 -88.1609 169° South  Level FlightAware Approximate
12:35PM 41.6714 -87.9886 211° Southwest 261 300 13,500  Level Chicago Center
12:36PM 41.3985 -88.2313 204° Southwest  Level Estimated
12:36PM 41.5964 -88.0425 208° Southwest 301 346 14,700  Level Chicago Center
12:37PM 41.3033 -88.3015 201° Southwest  Level Estimated
12:37PM 41.4936 -88.1164 208° Southwest 352 405 17,100  Level Chicago Center
12:38PM 41.4056 -88.1794 208° Southwest 374 430 18,800 1,740 Climbing Chicago Center
12:40PM 41.3050 -88.2264 199° South 391 450 20,700 1,800 Climbing Chicago Center
12:41PM 41.1772 -88.2839 199° South 408 470 22,600 1,620 Climbing Chicago Center
12:42PM 41.0669 -88.3333 199° South 421 484 24,100 1,440 Climbing Chicago Center
12:43PM 40.9544 -88.3844 199° South 430 495 25,600 1,380 Climbing Chicago Center
12:44PM 40.8394 -88.4358 199° South 435 501 27,000 1,200 Climbing Chicago Center
12:45PM 40.7219 -88.4883 199° South 444 511 28,100 1,140 Climbing Chicago Center
12:46PM 40.5767 -88.5517 198° South 457 526 29,400 1,440 Climbing Chicago Center
12:47PM 40.4511 -88.6081 199° South 465 535 31,100 1,500 Climbing Chicago Center
12:48PM 40.3347 -88.6714 203° Southwest 454 522 32,600 1,260 Climbing Chicago Center
12:49PM 40.2350 -88.7711 217° Southwest 449 517 33,800 660 Climbing Chicago Center
12:50PM 40.1456 -88.8858 224° Southwest 448 516 34,000 240 Climbing Chicago Center
12:51PM 40.0544 -89.0014 224° Southwest 447 514 34,300 960 Climbing Kansas City Center
12:52PM 39.9664 -89.1131 224° Southwest 443 510 35,900 780 Climbing Kansas City Center
12:53PM 39.8792 -89.2233 224° Southwest 436 502 36,000  Climbing Kansas City Center
12:54PM 39.7903 -89.3328 223° Southwest 437 503 36,000 -60 Level Kansas City Center
12:55PM 39.6956 -89.4519 224° Southwest 435 501 35,900 -60 Descending Kansas City Center
12:56PM 39.6089 -89.5611 224° Southwest 435 501 35,900  Level Kansas City Center
12:57PM 39.5222 -89.6694 224° Southwest 435 501 35,900  Level Kansas City Center
12:58PM 39.4333 -89.7792 224° Southwest 439 505 36,000  Climbing Kansas City Center
12:59PM 39.3447 -89.8889 224° Southwest 442 509 36,000  Level Kansas City Center
01:00PM 39.2386 -90.0211 224° Southwest 443 510 36,000  Level Kansas City Center
01:01PM 39.1508 -90.1286 224° Southwest 439 505 36,000  Level Kansas City Center
01:02PM 39.0642 -90.2356 224° Southwest 437 503 36,000  Level Kansas City Center
01:03PM 38.9775 -90.3419 224° Southwest 435 501 36,000  Level Kansas City Center
01:04PM 38.8772 -90.4656 224° Southwest 427 491 36,000 240 Level Kansas City Center
01:05PM 38.7953 -90.5753 226° Southwest 425 489 36,600 720 Climbing Kansas City Center
01:06PM 38.7183 -90.6931 230° Southwest 446 513 37,600 660 Climbing Kansas City Center
01:07PM 38.6411 -90.8033 228° Southwest 427 491 38,000 120 Climbing Kansas City Center
01:08PM 38.5631 -90.9183 229° Southwest 432 497 37,900  Descending Kansas City Center
01:09PM 38.4686 -91.0556 229° Southwest 435 501 38,000  Climbing Kansas City Center
01:10PM 38.3906 -91.1686 229° Southwest 430 495 38,000  Level Kansas City Center
01:11PM 38.3108 -91.2806 228° Southwest 428 493 38,000  Level Kansas City Center
01:12PM 38.2264 -91.4028 229° Southwest 427 491 38,000  Level Kansas City Center
01:14PM 38.1467 -91.5153 228° Southwest 426 490 38,000 -60 Level Kansas City Center
01:15PM 38.0669 -91.6286 228° Southwest 429 494 37,900  Descending Kansas City Center
01:16PM 37.9867 -91.7431 228° Southwest 431 496 38,000  Climbing Kansas City Center
01:17PM 37.9064 -91.8561 228° Southwest 429 494 38,000  Level Kansas City Center
01:18PM 37.8267 -91.9697 228° Southwest 428 493 38,000  Level Kansas City Center
01:19PM 37.7408 -92.0911 228° Southwest 431 496 38,000 -60 Level Kansas City Center
01:20PM 37.6467 -92.2211 228° Southwest 430 495 37,900 -60 Descending Kansas City Center
01:21PM 37.5667 -92.3350 228° Southwest 430 495 37,900  Level Kansas City Center
01:22PM 37.4864 -92.4481 228° Southwest 429 494 38,000  Climbing Kansas City Center
01:23PM 37.4042 -92.5603 227° Southwest 430 495 38,000  Level Kansas City Center
01:24PM 37.3214 -92.6764 228° Southwest 441 507 38,000  Level Kansas City Center
01:25PM 37.2381 -92.7894 227° Southwest 440 506 38,000  Level Kansas City Center
01:26PM 37.1547 -92.9047 228° Southwest 443 510 38,000  Level Kansas City Center
01:27PM 37.0539 -93.0406 227° Southwest 442 509 38,000  Level Kansas City Center
01:28PM 36.9564 -93.1353 218° Southwest 441 507 38,000  Level Kansas City Center
01:29PM 36.8656 -93.2303 220° Southwest 444 511 38,000  Level Memphis Center
01:30PM 36.7675 -93.3250 218° Southwest 444 511 38,000  Level Memphis Center
01:31PM 36.6667 -93.4208 217° Southwest 441 507 38,000  Level Kansas City Center
01:32PM 36.5583 -93.5214 217° Southwest 460 529 38,000  Level Memphis Center
01:33PM 36.4600 -93.6183 218° Southwest 455 524 38,000 -60 Level Memphis Center
01:34PM 36.3678 -93.7125 219° Southwest 455 524 37,900  Descending Memphis Center
01:35PM 36.2694 -93.8064 218° Southwest 455 524 38,000  Climbing Memphis Center
01:36PM 36.1708 -93.8997 217° Southwest 450 518 38,000  Level Memphis Center
01:37PM 36.0722 -93.9958 218° Southwest 455 524 38,000  Level Memphis Center
01:38PM 35.9778 -94.0864 218° Southwest 450 518 38,000  Level Memphis Center
01:39PM 35.8789 -94.1819 218° Southwest 450 518 38,000  Level Memphis Center
01:40PM 35.7844 -94.2722 218° Southwest 450 518 38,000  Level Memphis Center
01:41PM 35.6856 -94.3647 217° Southwest 455 524 38,000  Level Memphis Center
01:42PM 35.5886 -94.4594 218° Southwest 455 524 38,000 -60 Level Memphis Center
01:43PM 35.4917 -94.5517 218° Southwest 449 517 37,900  Descending Memphis Center
01:44PM 35.3928 -94.6436 217° Southwest 454 522 38,000 60 Climbing Memphis Center
01:44PM 35.3575 -94.6747 216° Southwest 461 531 38,000  Level Fort Worth Center
01:45PM 35.2739 -94.7589 219° Southwest 436 502 38,000  Level Fort Worth Center
01:46PM 35.1736 -94.8533 218° Southwest 442 509 38,000  Level Fort Worth Center
01:47PM 35.0733 -94.9478 218° Southwest 453 521 38,000  Level Fort Worth Center
01:48PM 34.9750 -95.0367 217° Southwest 458 527 38,000  Level Fort Worth Center
01:49PM 34.8725 -95.1308 217° Southwest 458 527 38,000 -60 Level Fort Worth Center
01:50PM 34.7739 -95.2219 217° Southwest 458 527 37,900 -60 Descending Fort Worth Center
01:51PM 34.6714 -95.3206 218° Southwest 458 527 37,900  Level Fort Worth Center
01:52PM 34.5683 -95.4111 216° Southwest 458 527 38,000  Climbing Fort Worth Center
01:53PM 34.4656 -95.5017 216° Southwest 458 527 38,000  Level Fort Worth Center
01:54PM 34.3522 -95.6047 217° Southwest 465 535 38,000  Level Fort Worth Center
01:55PM 34.2472 -95.7000 217° Southwest 465 535 38,000  Level Fort Worth Center
01:56PM 34.1461 -95.7925 217° Southwest 471 542 38,000 -60 Level Fort Worth Center
01:57PM 34.0556 -95.8767 218° Southwest 471 542 37,900  Descending Fort Worth Center
01:58PM 33.9378 -95.9789 216° Southwest 476 548 38,000  Climbing Fort Worth Center
01:59PM 33.8322 -96.0733 217° Southwest 476 548 38,000  Level Fort Worth Center
02:01PM 33.7279 -96.1585 214° Southwest  Level FlightAware Approximate
02:01PM 33.6336 -96.2508 214° Southwest 476 548 38,000  Level Fort Worth Center
02:02PM 33.5178 -96.3544 217° Southwest 476 548 38,000  Level Fort Worth Center
02:03PM 33.4203 -96.4428 217° Southwest 481 554 38,000  Level Fort Worth Center
02:04PM 33.3022 -96.5461 216° Southwest 481 554 38,000  Level Fort Worth Center
02:05PM 33.1983 -96.6414 218° Southwest 476 548 38,000 -60 Level Fort Worth Center
02:06PM 33.1008 -96.7289 217° Southwest 483 556 37,900  Descending Fort Worth Center
02:07PM 32.9781 -96.8314 215° Southwest 488 562 38,000  Climbing Fort Worth Center
02:08PM 32.8511 -96.8719 195° South 473 544 38,000  Level Fort Worth Center
02:09PM 32.7194 -96.8603 176° South 468 539 38,000  Level Fort Worth Center
02:10PM 32.5878 -96.8192 165° South 468 539 38,000  Level Fort Worth Center
02:11PM 32.4603 -96.7831 167° South 473 544 38,000  Level Fort Worth Center
02:12PM 32.3328 -96.7469 167° South 473 544 38,000 -60 Level Fort Worth Center
02:13PM 32.2072 -96.7308 174° South 468 539 37,900 -60 Descending Fort Worth Center
02:14PM 32.0758 -96.7442 185° South 462 532 37,900  Level Fort Worth Center
02:15PM 31.9506 -96.7597 186° South 462 532 38,000  Climbing Fort Worth Center
02:16PM 31.8214 -96.7728 185° South 467 537 38,000 -300 Level Fort Worth Center
02:17PM 31.6897 -96.7858 185° South 466 536 37,500 -1,380 Descending Fort Worth Center
02:19PM 31.5411 -96.7494 168° South 477 549 35,100 -2,040 Descending Houston Center
02:20PM 31.4061 -96.7633 185° South 481 554 33,000 -2,040 Descending Houston Center
02:21PM 31.2711 -96.7783 185° South 480 552 30,900 -2,100 Descending Houston Center
02:22PM 31.1375 -96.7892 184° South 476 548 28,700 -2,220 Descending Houston Center
02:23PM 31.0103 -96.7992 184° South 455 524 26,400 -2,220 Descending Houston Center
02:24PM 30.9028 -96.7392 154° Southeast 452 520 24,100 -2,160 Descending Houston Center
02:25PM 30.8392 -96.6214 122° Southeast 427 491 22,000 -2,220 Descending Houston Center
02:26PM 30.7806 -96.5056 120° Southeast 413 475 19,600 -2,520 Descending Houston Center
02:27PM 30.7139 -96.3750 121° Southeast 400 460 16,800 -2,580 Descending Houston Center
02:28PM 30.6586 -96.2642 120° Southeast 394 453 14,300 -2,220 Descending Houston Center
02:29PM 30.6047 -96.1561 120° Southeast 386 444 12,300 -1,620 Descending Houston Center
02:30PM 30.5617 -96.0758 122° Southeast 345 397 11,400 -1,080 Descending Houston Center
02:31PM 30.5086 -95.9711 120° Southeast 324 373 10,100 -660 Descending Houston Center
02:32PM 30.4617 -95.8825 122° Southeast 323 372 10,000 -60 Descending Houston Center
02:33PM 30.3794 -95.8175 146° Southeast 314 361 10,000 -360 Level Houston Center
02:34PM 30.3028 -95.8219 183° South 283 326 9,300 -780 Descending Houston Center
02:35PM 30.2286 -95.8272 184° South 272 313 8,400 -1,140 Descending Houston Center
02:36PM 30.1506 -95.8328 184° South 246 283 7,000 -1,140 Descending Houston Center
02:37PM 30.0878 -95.8353 182° South 219 252 6,100 -540 Descending Houston Center
02:38PM 30.0253 -95.8425 186° South 210 242 5,900 -120 Descending Houston Center
02:39PM 29.9903 -95.8031 136° Southeast 195 224 5,900  Level Houston Center
02:40PM 29.9614 -95.7583 127° Southeast 190 219 5,900 -180 Level Houston Center
02:41PM 29.9947 -95.7064 53° Northeast 188 216 5,600 -720 Descending Houston Center
02:42PM 29.9911 -95.6464 94° East 180 207 4,400 -960 Descending Houston Center
02:43PM 29.9922 -95.5858 89° East 187 215 3,800 -780 Descending Houston Center
02:44PM 29.9914 -95.5331 91° East 182 209 3,000 -900 Descending Houston Center